Time;durP1;ratioP1;P1;durP2;ratioP2;P2;SDS_P1;SDS_P2;PMS_P1;PMS_P2;Temp;Humidity;BMP_temperature;BMP_pressure;BME280_temperature;BME280_humidity;BME280_pressure;Samples;Min_cycle;Max_cycle;Signal;HPM_P1;HPM_P2
2022/03/30 00:00:35;;;;;;;;;57.75;41.25;;;;;15.01;58.91;100335.50;2440033;28;45288;-83
2022/03/30 00:01:46;;;;;;;;;54.50;42.50;;;;;15.00;58.99;100337.28;2442978;28;47270;-84
2022/03/30 00:02:56;;;;;;;;;51.75;42.75;;;;;14.99;58.91;100338.22;2451906;28;45204;-83
2022/03/30 00:04:06;;;;;;;;;53.00;42.00;;;;;14.97;59.28;100332.19;2452089;27;45426;-83
2022/03/30 00:05:17;;;;;;;;;47.75;39.75;;;;;14.93;59.62;100333.31;2452183;27;45239;-83
2022/03/30 00:06:27;;;;;;;;;51.50;39.25;;;;;14.92;59.13;100331.59;2444582;27;45528;-83
2022/03/30 00:07:38;;;;;;;;;50.50;41.50;;;;;14.89;59.42;100337.91;2452380;27;45180;-82
2022/03/30 00:08:48;;;;;;;;;54.75;42.75;;;;;14.86;59.30;100330.16;2444815;28;46471;-82
2022/03/30 00:09:59;;;;;;;;;54.75;43.50;;;;;14.83;59.43;100331.16;2441818;28;44783;-82
2022/03/30 00:11:11;;;;;;;;;57.25;44.50;;;;;14.82;59.30;100329.44;2448655;28;46618;-82
2022/03/30 00:12:21;;;;;;;;;48.00;38.50;;;;;14.80;59.38;100322.53;2451072;27;44703;-82
2022/03/30 00:13:32;;;;;;;;;49.25;42.00;;;;;14.76;59.34;100323.66;2454333;27;46952;-82
2022/03/30 00:14:42;;;;;;;;;51.00;39.75;;;;;14.75;59.56;100325.44;2446400;27;44676;-82
2022/03/30 00:15:52;;;;;;;;;56.50;43.00;;;;;14.71;59.74;100327.44;2446751;27;45398;-83
2022/03/30 00:17:03;;;;;;;;;49.25;37.00;;;;;14.68;59.50;100322.31;2462170;27;45361;-82
2022/03/30 00:18:14;;;;;;;;;58.00;44.25;;;;;14.65;59.75;100319.84;2444704;27;45463;-83
2022/03/30 00:19:24;;;;;;;;;50.75;42.00;;;;;14.65;59.53;100326.91;2442376;28;45153;-82
2022/03/30 00:20:35;;;;;;;;;56.00;42.75;;;;;14.61;60.03;100329.75;2441975;28;45473;-83
2022/03/30 00:21:46;;;;;;;;;56.25;44.00;;;;;14.59;59.56;100328.97;2441473;28;45275;-83
2022/03/30 00:22:56;;;;;;;;;54.75;42.25;;;;;14.58;59.85;100321.97;2441674;28;45273;-83
2022/03/30 00:24:06;;;;;;;;;46.50;36.75;;;;;14.56;59.86;100328.28;2442511;28;45193;-84
2022/03/30 00:25:17;;;;;;;;;57.00;45.00;;;;;14.54;59.83;100332.81;2443071;28;46213;-83
2022/03/30 00:26:27;;;;;;;;;53.50;42.25;;;;;14.51;60.03;100326.78;2448858;28;45220;-83
2022/03/30 00:27:43;;;;;;;;;52.25;42.50;;;;;14.48;60.05;100321.66;2449253;27;46429;-83
2022/03/30 00:28:53;;;;;;;;;52.50;41.50;;;;;14.46;60.08;100327.97;2441161;28;45199;-84
2022/03/30 00:30:06;;;;;;;;;53.00;41.50;;;;;14.42;60.25;100326.44;2441594;28;46347;-84
2022/03/30 00:31:18;;;;;;;;;44.50;37.00;;;;;14.38;59.99;100316.03;2442164;28;45336;-83
2022/03/30 00:32:28;;;;;;;;;54.50;43.00;;;;;14.36;60.18;100323.19;2442211;28;46122;-84
2022/03/30 00:33:38;;;;;;;;;52.00;42.00;;;;;14.33;60.13;100331.28;2442578;28;45279;-84
2022/03/30 00:34:49;;;;;;;;;50.50;40.75;;;;;14.28;60.10;100331.53;2442089;28;46193;-84
2022/03/30 00:35:59;;;;;;;;;37.75;35.25;;;;;14.26;60.35;100328.13;2444402;28;45239;-84
2022/03/30 00:37:09;;;;;;;;;56.25;45.75;;;;;14.23;60.23;100323.00;2451983;27;46437;-84
2022/03/30 00:38:20;;;;;;;;;52.75;41.50;;;;;14.22;60.48;100320.47;2451132;28;45284;-81
2022/03/30 00:39:31;;;;;;;;;56.00;42.75;;;;;14.21;60.62;100324.03;2445940;28;46499;-82
2022/03/30 00:40:42;;;;;;;;;56.75;43.25;;;;;14.21;60.70;100318.75;2450485;28;44711;-82
2022/03/30 00:41:52;;;;;;;;;55.50;43.00;;;;;14.20;61.23;100322.34;2437963;28;47242;-81
2022/03/30 00:43:03;;;;;;;;;52.50;41.50;;;;;14.21;60.74;100321.38;2443903;28;45430;-81
2022/03/30 00:44:14;;;;;;;;;54.25;42.00;;;;;14.18;60.60;100317.97;2444462;27;45284;-81
2022/03/30 00:45:24;;;;;;;;;55.25;43.25;;;;;14.16;60.99;100316.38;2442230;28;45182;-81
2022/03/30 00:46:35;;;;;;;;;52.25;41.75;;;;;14.14;60.82;100312.97;2442245;28;45454;-81
2022/03/30 00:47:46;;;;;;;;;56.00;45.25;;;;;14.13;60.77;100309.44;2445442;28;45302;-81
2022/03/30 00:48:56;;;;;;;;;55.50;40.00;;;;;14.11;60.86;100306.03;2450929;28;45365;-80
2022/03/30 00:50:08;;;;;;;;;53.50;43.00;;;;;14.13;61.00;100305.94;2442141;28;45231;-81
2022/03/30 00:51:19;;;;;;;;;59.25;45.75;;;;;14.12;60.91;100307.78;2441845;28;45322;-81
2022/03/30 00:52:29;;;;;;;;;53.50;42.00;;;;;14.12;60.98;100299.84;2442151;28;44783;-80
2022/03/30 00:53:39;;;;;;;;;51.50;43.00;;;;;14.12;61.16;100299.84;2443609;28;48285;-80
2022/03/30 00:54:51;;;;;;;;;57.00;45.00;;;;;14.14;60.97;100297.09;2442135;28;45336;-80
2022/03/30 00:56:01;;;;;;;;;57.25;43.50;;;;;14.14;60.78;100297.97;2451459;27;46303;-80
2022/03/30 00:57:14;;;;;;;;;56.25;44.25;;;;;14.13;60.97;100295.38;2450993;28;44743;-80
2022/03/30 00:58:26;;;;;;;;;59.00;44.00;;;;;14.15;60.77;100291.72;2444072;28;47465;-80
2022/03/30 00:59:38;;;;;;;;;56.75;43.25;;;;;14.15;61.25;100290.84;2449914;28;44781;-80
2022/03/30 01:00:49;;;;;;;;;64.25;45.50;;;;;14.15;60.79;100299.66;2442192;28;45536;-86
2022/03/30 01:02:00;;;;;;;;;54.25;41.25;;;;;14.13;60.82;100280.38;2450765;28;45240;-83
2022/03/30 01:03:11;;;;;;;;;59.00;46.50;;;;;14.15;61.08;100285.56;2443206;28;46517;-83
2022/03/30 01:04:21;;;;;;;;;60.00;42.00;;;;;14.16;60.79;100282.00;2450365;27;45340;-82
2022/03/30 01:05:32;;;;;;;;;60.50;45.50;;;;;14.13;60.60;100277.75;2445012;27;46267;-82
2022/03/30 01:06:42;;;;;;;;;58.00;44.50;;;;;14.12;60.91;100275.19;2444607;28;44669;-82
2022/03/30 01:07:57;;;;;;;;;39.75;30.75;;;;;14.16;60.92;100276.72;2451689;27;45325;-83
2022/03/30 01:09:08;;;;;;;;;59.25;45.75;;;;;14.16;61.02;100274.94;2450925;28;45173;-83
2022/03/30 01:10:19;;;;;;;;;59.25;44.50;;;;;14.20;60.82;100274.78;2445819;28;46079;-82
2022/03/30 01:11:30;;;;;;;;;55.75;44.00;;;;;14.20;60.95;100275.59;2449747;28;45470;-83
2022/03/30 01:12:40;;;;;;;;;65.75;48.25;;;;;14.21;61.10;100273.81;2441858;28;46020;-82
2022/03/30 01:13:51;;;;;;;;;58.25;45.50;;;;;14.22;60.96;100278.19;2450577;28;45488;-82
2022/03/30 01:15:01;;;;;;;;;65.50;50.25;;;;;14.23;60.59;100277.22;2445338;27;45259;-83
2022/03/30 01:16:11;;;;;;;;;65.25;46.75;;;;;14.24;60.78;100278.94;2445930;27;44643;-82
2022/03/30 01:17:22;;;;;;;;;60.50;48.25;;;;;14.25;61.05;100267.41;2441840;28;45417;-82
2022/03/30 01:18:39;;;;;;;;;59.75;46.75;;;;;14.25;60.86;100270.91;2441794;28;45327;-81
2022/03/30 01:19:50;;;;;;;;;60.75;47.00;;;;;14.25;60.74;100267.41;2441518;28;46483;-81
2022/03/30 01:21:00;;;;;;;;;61.00;47.00;;;;;14.26;60.73;100258.56;2442217;28;45339;-81
2022/03/30 01:22:11;;;;;;;;;58.50;45.75;;;;;14.28;60.81;100267.25;2445969;28;46269;-81
2022/03/30 01:23:21;;;;;;;;;58.00;47.50;;;;;14.28;60.70;100257.53;2451568;27;45198;-81
2022/03/30 01:24:31;;;;;;;;;60.50;47.75;;;;;14.28;60.73;100259.31;2451532;27;46384;-81
2022/03/30 01:25:42;;;;;;;;;68.75;49.50;;;;;14.32;61.03;100257.38;2451406;28;45298;-80
2022/03/30 01:26:53;;;;;;;;;61.75;44.25;;;;;14.33;61.30;100257.28;2445416;27;46183;-80
2022/03/30 01:28:04;;;;;;;;;68.50;50.25;;;;;14.33;60.79;100254.63;2444223;28;45311;-81
2022/03/30 01:32:26;;;;;;;;;67.75;50.25;;;;;14.34;61.07;100256.34;2451402;28;45495;-83
2022/03/30 01:33:36;;;;;;;;;62.25;47.75;;;;;14.33;60.45;100253.75;2441058;28;45240;-84
2022/03/30 01:34:46;;;;;;;;;64.25;48.00;;;;;14.31;60.53;100251.22;2440906;28;45256;-83
2022/03/30 01:35:57;;;;;;;;;60.75;47.00;;;;;14.31;60.45;100251.22;2442823;28;45140;-83
2022/03/30 01:37:09;;;;;;;;;63.00;48.00;;;;;14.33;60.60;100251.13;2450974;28;45565;-83
2022/03/30 01:38:19;;;;;;;;;61.75;47.25;;;;;14.33;60.87;100248.47;2443780;27;45211;-82
2022/03/30 01:39:30;;;;;;;;;63.25;46.75;;;;;14.34;61.02;100244.91;2445419;28;45386;-83
2022/03/30 01:40:40;;;;;;;;;60.00;46.50;;;;;14.35;60.76;100242.16;2446412;27;45214;-81
2022/03/30 01:41:50;;;;;;;;;61.25;46.75;;;;;14.34;60.48;100237.84;2441886;28;46113;-81
2022/03/30 01:43:02;;;;;;;;;60.25;45.75;;;;;14.35;60.76;100236.88;2441579;28;45305;-81
2022/03/30 01:44:12;;;;;;;;;50.00;38.50;;;;;14.36;60.36;100240.38;2441218;28;45427;-84
2022/03/30 01:45:22;;;;;;;;;59.75;46.75;;;;;14.40;60.76;100244.53;2440919;28;44721;-84
2022/03/30 01:46:37;;;;;;;;;63.25;48.25;;;;;14.40;60.67;100240.13;2440910;28;46208;-84
2022/03/30 01:47:54;;;;;;;;;61.00;47.50;;;;;14.43;60.84;100239.09;2440843;28;45197;-83
2022/03/30 01:49:04;;;;;;;;;61.25;48.00;;;;;14.45;60.58;100228.41;2448904;27;47700;-82
2022/03/30 01:50:15;;;;;;;;;62.25;48.00;;;;;14.47;60.43;100237.13;2456624;27;45191;-84
2022/03/30 01:51:25;;;;;;;;;64.25;49.00;;;;;14.45;60.36;100225.78;2445119;28;47099;-83
2022/03/30 01:52:36;;;;;;;;;60.25;46.50;;;;;14.47;60.59;100234.50;2445343;28;45259;-83
2022/03/30 01:53:46;;;;;;;;;59.25;45.75;;;;;14.46;60.57;100236.28;2451237;28;46156;-83
2022/03/30 01:54:57;;;;;;;;;57.25;44.25;;;;;14.46;60.91;100232.78;2443661;27;44570;-83
2022/03/30 01:56:07;;;;;;;;;62.25;47.25;;;;;14.46;60.72;100236.28;2441141;28;46468;-83
2022/03/30 01:57:17;;;;;;;;;60.00;46.25;;;;;14.45;60.67;100233.69;2440717;28;45347;-83
2022/03/30 01:58:28;;;;;;;;;67.50;52.25;;;;;14.47;60.56;100234.50;2440847;28;46678;-83
2022/03/30 01:59:40;;;;;;;;;57.25;43.25;;;;;14.44;60.84;100229.38;2441654;28;45322;-90
2022/03/30 02:00:51;;;;;;;;;61.50;48.50;;;;;14.43;60.93;100227.66;2447809;28;45505;-89
2022/03/30 02:02:02;;;;;;;;;58.75;45.50;;;;;14.42;60.91;100225.97;2450474;28;45385;-88
2022/03/30 02:03:12;;;;;;;;;61.25;48.00;;;;;14.43;60.96;100225.00;2450603;28;45439;-87
2022/03/30 02:04:24;;;;;;;;;62.00;49.25;;;;;14.42;61.04;100223.31;2450597;28;45198;-86
2022/03/30 02:05:34;;;;;;;;;62.75;44.25;;;;;14.42;60.61;100220.69;2450619;28;46235;-88
2022/03/30 02:06:45;;;;;;;;;66.00;49.00;;;;;14.40;60.44;100215.47;2441979;27;45456;-84
2022/03/30 02:07:55;;;;;;;;;60.75;46.50;;;;;14.39;61.06;100214.63;2440719;28;46352;-84
2022/03/30 02:09:07;;;;;;;;;59.50;45.50;;;;;14.37;60.46;100207.72;2447681;28;45188;-81
2022/03/30 02:10:18;;;;;;;;;64.25;48.50;;;;;14.37;60.52;100219.13;2446993;28;47217;-81
2022/03/30 02:11:28;;;;;;;;;64.25;48.25;;;;;14.37;61.05;100219.13;2443208;28;45226;-82
2022/03/30 02:12:39;;;;;;;;;62.00;49.00;;;;;14.36;60.82;100212.16;2449194;28;45401;-81
2022/03/30 02:13:50;;;;;;;;;62.25;48.25;;;;;14.36;60.68;100217.44;2449936;28;45354;-81
2022/03/30 02:15:00;;;;;;;;;57.75;44.75;;;;;14.34;61.05;100205.25;2443580;28;45286;-81
2022/03/30 02:16:11;;;;;;;;;66.50;49.75;;;;;14.34;60.59;100213.19;2442677;27;45394;-80
2022/03/30 02:17:23;;;;;;;;;63.75;48.75;;;;;14.28;60.48;100211.75;2441371;28;45284;-81
2022/03/30 02:18:34;;;;;;;;;66.00;48.25;;;;;14.27;60.96;100212.69;2442916;28;45520;-80
2022/03/30 02:19:45;;;;;;;;;63.25;47.75;;;;;14.21;60.92;100211.25;2446032;28;46178;-80
2022/03/30 02:20:56;;;;;;;;;64.25;48.25;;;;;14.17;60.81;100207.91;2441547;28;44661;-81
2022/03/30 02:22:06;;;;;;;;;62.50;47.00;;;;;14.15;61.07;100207.16;2441417;27;45369;-80
2022/03/30 02:23:16;;;;;;;;;62.25;47.50;;;;;14.10;60.92;100203.91;2441374;28;44618;-82
2022/03/30 02:24:27;;;;;;;;;63.75;49.75;;;;;14.06;60.91;100195.31;2441217;28;45313;-81
2022/03/30 02:25:37;;;;;;;;;59.00;48.00;;;;;14.04;61.16;100196.34;2441560;28;45298;-81
2022/03/30 02:26:48;;;;;;;;;59.25;46.50;;;;;14.04;60.98;100196.34;2441172;28;46436;-81
2022/03/30 02:27:58;;;;;;;;;65.25;49.00;;;;;14.01;61.31;100194.72;2441651;28;44605;-80
2022/03/30 02:29:09;;;;;;;;;67.25;49.75;;;;;13.98;61.07;100188.75;2441058;27;45426;-81
2022/03/30 02:30:20;;;;;;;;;60.50;45.75;;;;;13.98;61.14;100186.09;2441307;28;45461;-81
2022/03/30 02:31:31;;;;;;;;;58.00;47.25;;;;;13.97;61.27;100195.84;2441117;28;46577;-82
2022/03/30 02:32:44;;;;;;;;;57.50;45.50;;;;;13.94;61.38;100183.66;2441451;28;45267;-83
2022/03/30 02:33:54;;;;;;;;;66.75;50.00;;;;;13.96;61.46;100188.84;2441021;28;46362;-82
2022/03/30 02:35:05;;;;;;;;;55.25;46.50;;;;;13.92;61.36;100185.53;2441243;28;45239;-82
2022/03/30 02:36:15;;;;;;;;;65.00;49.00;;;;;13.90;61.57;100189.19;2441553;28;46093;-82
2022/03/30 02:37:26;;;;;;;;;61.00;45.50;;;;;13.87;62.05;100192.88;2449953;28;46307;-83
2022/03/30 02:38:36;;;;;;;;;62.25;48.25;;;;;13.82;61.67;100184.34;2445458;27;45343;-82
2022/03/30 02:39:47;;;;;;;;;63.75;48.50;;;;;13.82;61.67;100192.28;2441189;28;45228;-82
2022/03/30 02:40:57;;;;;;;;;58.75;46.75;;;;;13.78;61.89;100191.56;2441219;28;45205;-82
2022/03/30 02:42:08;;;;;;;;;65.75;47.75;;;;;13.79;61.82;100193.28;2441182;28;44598;-82
2022/03/30 02:43:19;;;;;;;;;59.25;47.25;;;;;13.76;61.66;100187.31;2441052;28;46283;-82
2022/03/30 02:44:30;;;;;;;;;62.25;49.00;;;;;13.72;62.21;100184.84;2440264;28;45244;-82
2022/03/30 02:45:40;;;;;;;;;60.25;46.25;;;;;13.71;61.81;100175.22;2447761;28;48003;-82
2022/03/30 02:46:51;;;;;;;;;66.25;51.50;;;;;13.70;62.17;100173.50;2445988;28;45366;-82
2022/03/30 02:49:43;;;;;;;;;64.00;50.50;;;;;13.70;62.13;100170.84;2439850;28;45284;-84
2022/03/30 02:50:57;;;;;;;;;65.75;50.25;;;;;13.72;62.15;100181.34;2449402;27;45228;-84
2022/03/30 02:52:07;;;;;;;;;62.25;49.75;;;;;13.70;62.10;100178.78;2450943;27;44592;-83
2022/03/30 02:53:19;;;;;;;;;65.25;48.75;;;;;13.68;61.91;100178.03;2450783;27;45247;-82
2022/03/30 02:54:29;;;;;;;;;67.50;51.50;;;;;13.67;62.21;100175.47;2451130;27;45349;-82
2022/03/30 02:55:40;;;;;;;;;63.75;48.50;;;;;13.69;62.37;100182.38;2445673;27;45465;-83
2022/03/30 02:56:51;;;;;;;;;63.50;50.50;;;;;13.66;62.14;100171.97;2441327;28;45384;-83
2022/03/30 02:58:01;;;;;;;;;65.50;49.50;;;;;13.65;62.29;100170.28;2440212;28;46865;-82
2022/03/30 02:59:11;;;;;;;;;64.25;48.25;;;;;13.63;62.25;100172.13;2440322;28;45447;-87
2022/03/30 03:00:22;;;;;;;;;67.50;51.00;;;;;13.64;62.51;100175.63;2440833;28;46203;-83
2022/03/30 03:01:32;;;;;;;;;62.25;49.50;;;;;13.62;62.63;100181.00;2441289;28;45247;-83
2022/03/30 03:02:43;;;;;;;;;63.75;46.00;;;;;13.64;62.54;100175.63;2440860;28;45410;-82
2022/03/30 03:03:53;;;;;;;;;63.75;48.75;;;;;13.64;62.40;100173.00;2445976;28;44787;-82
2022/03/30 03:05:04;;;;;;;;;66.25;48.75;;;;;13.62;62.28;100178.38;2447856;27;46678;-80
2022/03/30 03:06:14;;;;;;;;;68.50;50.50;;;;;13.62;62.44;100178.38;2443407;28;45449;-82
2022/03/30 03:07:25;;;;;;;;;65.75;48.25;;;;;13.59;62.89;100181.16;2450879;27;46553;-82
2022/03/30 03:08:35;;;;;;;;;58.00;46.00;;;;;13.59;62.46;100182.03;2442104;27;45409;-81
2022/03/30 03:09:46;;;;;;;;;62.50;49.25;;;;;13.57;62.68;100173.34;2440974;28;46519;-81
2022/03/30 03:10:57;;;;;;;;;68.00;50.75;;;;;13.55;62.54;100180.47;2447189;28;45153;-81
2022/03/30 03:12:08;;;;;;;;;66.00;48.50;;;;;13.57;62.66;100180.41;2447877;27;46216;-81
2022/03/30 03:13:18;;;;;;;;;62.25;48.50;;;;;13.57;63.00;100188.34;2444657;28;45214;-81
2022/03/30 03:14:29;;;;;;;;;66.75;49.75;;;;;13.53;63.09;100179.69;2440659;28;46062;-81
2022/03/30 03:15:40;;;;;;;;;64.00;49.50;;;;;13.55;63.06;100171.69;2443484;28;45214;-82
2022/03/30 03:16:51;;;;;;;;;66.25;51.75;;;;;13.54;62.88;100177.91;2440458;28;45437;-82
2022/03/30 03:18:02;;;;;;;;;65.75;50.25;;;;;13.52;62.98;100175.34;2441365;28;45439;-82
2022/03/30 03:19:12;;;;;;;;;65.50;51.25;;;;;13.52;63.09;100175.34;2440944;28;45481;-82
2022/03/30 03:20:23;;;;;;;;;65.50;50.50;;;;;13.55;63.03;100174.34;2442562;28;45369;-83
2022/03/30 03:21:34;;;;;;;;;62.50;48.75;;;;;13.55;62.72;100174.34;2442622;28;45416;-83
2022/03/30 03:22:44;;;;;;;;;68.00;51.25;;;;;13.57;62.92;100172.50;2442666;27;45275;-83
2022/03/30 03:23:55;;;;;;;;;67.50;49.75;;;;;13.58;63.14;100174.22;2442572;28;46317;-82
2022/03/30 03:25:07;;;;;;;;;61.25;47.75;;;;;13.59;63.13;100171.47;2442702;28;44610;-83
2022/03/30 03:26:17;;;;;;;;;69.50;51.00;;;;;13.58;63.13;100161.84;2442374;28;46310;-82
2022/03/30 03:27:28;;;;;;;;;62.00;48.75;;;;;13.63;63.31;100168.66;2442644;28;45356;-82
2022/03/30 03:28:39;;;;;;;;;63.00;47.75;;;;;13.62;63.04;100159.88;2442403;28;45445;-83
2022/03/30 03:29:49;;;;;;;;;66.50;52.50;;;;;13.64;63.10;100168.56;2442624;28;45203;-82
2022/03/30 03:31:00;;;;;;;;;65.00;48.00;;;;;13.66;62.88;100156.13;2442495;28;46132;-83
2022/03/30 03:32:10;;;;;;;;;62.00;46.50;;;;;13.69;62.86;100152.47;2446017;28;45223;-83
2022/03/30 03:33:20;;;;;;;;;67.25;50.25;;;;;13.69;63.23;100155.97;2443466;28;48177;-82
2022/03/30 03:34:31;;;;;;;;;62.50;48.00;;;;;13.70;63.15;100162.94;2442409;28;45394;-83
2022/03/30 03:35:41;;;;;;;;;60.75;47.00;;;;;13.73;63.53;100159.28;2442577;28;45595;-82
2022/03/30 03:36:51;;;;;;;;;67.75;50.25;;;;;13.72;62.86;100153.16;2451918;28;45322;-83
2022/03/30 03:38:04;;;;;;;;;64.25;49.75;;;;;13.72;62.76;100149.66;2446424;28;45404;-83
2022/03/30 03:39:14;;;;;;;;;60.75;48.25;;;;;13.73;62.94;100151.34;2444896;28;44631;-83
2022/03/30 03:40:26;;;;;;;;;66.75;50.75;;;;;13.75;62.89;100146.00;2448947;27;45185;-83
2022/03/30 03:41:36;;;;;;;;;60.75;49.75;;;;;13.79;62.98;100152.81;2442730;28;45290;-84
2022/03/30 03:42:48;;;;;;;;;66.25;51.25;;;;;13.79;63.13;100156.31;2451227;28;47997;-84
2022/03/30 03:43:59;;;;;;;;;69.00;51.25;;;;;13.80;62.58;100152.72;2448910;28;44844;-84
2022/03/30 03:45:10;;;;;;;;;63.50;48.75;;;;;13.80;62.79;100152.72;2442495;28;46196;-84
2022/03/30 03:46:20;;;;;;;;;59.75;47.25;;;;;13.81;62.85;100148.28;2450809;28;45340;-85
2022/03/30 03:47:31;;;;;;;;;64.25;48.75;;;;;13.81;62.78;100143.00;2451540;28;45404;-85
2022/03/30 03:48:41;;;;;;;;;64.50;49.00;;;;;13.85;62.82;100152.47;2450713;28;44681;-84
2022/03/30 03:49:52;;;;;;;;;66.25;51.00;;;;;13.83;62.81;100154.34;2442322;28;46298;-84
2022/03/30 03:51:02;;;;;;;;;63.25;47.75;;;;;13.84;62.97;100148.13;2442852;28;45324;-84
2022/03/30 03:52:12;;;;;;;;;63.75;48.75;;;;;13.87;63.00;100155.88;2442291;28;45516;-83
2022/03/30 03:53:23;;;;;;;;;67.75;51.50;;;;;13.87;63.20;100145.31;2442488;28;45253;-83
2022/03/30 03:54:33;;;;;;;;;63.00;47.00;;;;;13.88;62.84;100151.47;2448393;28;46393;-83
2022/03/30 03:55:43;;;;;;;;;63.25;50.00;;;;;13.87;62.78;100152.38;2448088;28;45386;-83
2022/03/30 03:56:54;;;;;;;;;68.50;51.50;;;;;13.88;62.95;100147.00;2442386;28;45366;-85
2022/03/30 03:58:06;;;;;;;;;66.50;48.50;;;;;13.88;62.67;100140.91;2452151;28;45230;-84
2022/03/30 03:59:16;;;;;;;;;64.50;47.75;;;;;13.89;62.88;100142.56;2451808;28;46278;-83
2022/03/30 04:00:27;;;;;;;;;58.50;46.50;;;;;13.89;62.45;100137.28;2452177;27;45307;-83
2022/03/30 04:01:37;;;;;;;;;63.25;49.75;;;;;13.91;62.63;100148.63;2451437;28;47156;-84
2022/03/30 04:02:47;;;;;;;;;64.50;50.00;;;;;13.89;62.57;100135.50;2446017;28;44724;-81
2022/03/30 04:03:58;;;;;;;;;63.75;50.00;;;;;13.94;62.42;100149.31;2442553;28;45574;-79
2022/03/30 04:05:09;;;;;;;;;65.00;51.00;;;;;13.95;62.34;100144.88;2442450;28;45286;-79
2022/03/30 04:06:21;;;;;;;;;62.25;49.25;;;;;13.95;62.52;100142.25;2442550;28;46369;-79
2022/03/30 04:07:32;;;;;;;;;62.75;49.50;;;;;13.97;62.41;100142.16;2446180;28;44829;-79
2022/03/30 04:08:42;;;;;;;;;56.75;45.50;;;;;13.96;62.23;100149.22;2450390;27;46069;-80
2022/03/30 04:09:53;;;;;;;;;65.00;50.00;;;;;13.98;62.33;100141.19;2442519;28;45421;-80
2022/03/30 04:11:03;;;;;;;;;67.50;49.50;;;;;13.96;62.42;100143.94;2444517;28;47529;-80
2022/03/30 04:12:13;;;;;;;;;58.00;46.75;;;;;14.00;62.54;100145.44;2441916;28;45346;-80
2022/03/30 04:13:25;;;;;;;;;67.25;51.00;;;;;14.02;62.19;100150.66;2447571;28;45530;-80
2022/03/30 04:14:35;;;;;;;;;68.00;51.50;;;;;14.01;62.64;100143.66;2445013;27;44737;-80
2022/03/30 04:15:46;;;;;;;;;69.50;51.75;;;;;14.02;62.28;100146.25;2443829;27;45435;-81
2022/03/30 04:16:56;;;;;;;;;66.75;51.75;;;;;14.05;62.39;100147.84;2462107;27;45184;-81
2022/03/30 04:18:09;;;;;;;;;65.25;49.00;;;;;14.05;62.60;100142.56;2442460;27;47075;-80
2022/03/30 04:19:20;;;;;;;;;60.25;45.50;;;;;14.05;62.54;100145.22;2441896;28;45413;-81
2022/03/30 04:20:31;;;;;;;;;70.00;51.00;;;;;14.05;62.68;100145.22;2444399;28;46661;-80
2022/03/30 04:21:42;;;;;;;;;60.50;47.00;;;;;14.06;62.51;100144.25;2451608;28;44648;-80
2022/03/30 04:22:53;;;;;;;;;66.75;50.00;;;;;14.05;62.54;100145.22;2445601;27;45384;-80
2022/03/30 04:24:03;;;;;;;;;69.00;50.75;;;;;14.03;62.57;100147.06;2442104;28;45250;-79
2022/03/30 04:25:14;;;;;;;;;67.50;49.50;;;;;14.05;62.60;100142.56;2442116;28;45271;-80
2022/03/30 04:26:24;;;;;;;;;68.00;51.50;;;;;14.04;62.67;100138.22;2442317;28;45157;-80
2022/03/30 04:27:35;;;;;;;;;62.25;47.50;;;;;14.04;62.77;100139.06;2442086;28;45367;-79
2022/03/30 04:28:45;;;;;;;;;67.50;51.00;;;;;14.05;62.73;100138.13;2441990;28;44580;-78
2022/03/30 04:29:55;;;;;;;;;66.50;51.00;;;;;14.03;62.80;100137.34;2441100;28;47232;-78
2022/03/30 04:31:07;;;;;;;;;67.25;48.25;;;;;14.03;62.48;100137.34;2441426;28;45307;-83
2022/03/30 04:32:17;;;;;;;;;63.25;49.00;;;;;14.02;62.88;100126.88;2442301;28;45279;-82
2022/03/30 04:33:28;;;;;;;;;70.50;53.75;;;;;14.03;62.41;100132.06;2442517;28;45176;-82
2022/03/30 04:34:38;;;;;;;;;68.00;52.25;;;;;14.02;62.51;100130.38;2450330;28;45274;-83
2022/03/30 04:35:48;;;;;;;;;70.00;54.00;;;;;14.02;62.49;100129.53;2451495;28;45462;-81
2022/03/30 04:36:59;;;;;;;;;68.50;53.25;;;;;14.01;62.37;100131.31;2446831;27;46205;-81
2022/03/30 04:38:09;;;;;;;;;67.00;49.25;;;;;13.99;62.54;100125.28;2443166;28;44764;-81
2022/03/30 04:39:20;;;;;;;;;66.50;52.00;;;;;14.01;62.56;100127.81;2451909;27;45305;-81
2022/03/30 04:40:30;;;;;;;;;67.25;51.50;;;;;14.00;62.46;100128.78;2449720;27;45237;-81
2022/03/30 04:41:41;;;;;;;;;68.75;54.00;;;;;14.03;62.77;100131.22;2441991;28;45264;-81
2022/03/30 04:42:51;;;;;;;;;70.50;53.75;;;;;14.01;62.77;100125.16;2449527;28;45274;-81
2022/03/30 04:44:02;;;;;;;;;75.75;53.75;;;;;14.04;62.65;100125.00;2447551;27;46458;-81
2022/03/30 04:45:12;;;;;;;;;71.50;53.25;;;;;14.03;62.58;100121.50;2442178;28;45334;-81
2022/03/30 04:46:22;;;;;;;;;69.25;52.75;;;;;14.06;62.71;100125.75;2451702;27;46309;-81
2022/03/30 04:47:33;;;;;;;;;67.50;52.25;;;;;14.06;62.72;100115.19;2451931;27;45156;-81
2022/03/30 04:48:43;;;;;;;;;68.75;53.50;;;;;14.06;62.76;100110.75;2451730;27;45409;-81
2022/03/30 04:49:54;;;;;;;;;68.25;51.25;;;;;14.07;62.89;100117.72;2451889;27;45289;-81
2022/03/30 04:51:05;;;;;;;;;68.75;52.25;;;;;14.07;62.88;100111.63;2443770;27;45457;-82
2022/03/30 04:52:15;;;;;;;;;68.75;52.25;;;;;14.09;62.89;100112.38;2442134;28;44686;-80
2022/03/30 04:53:26;;;;;;;;;68.75;53.75;;;;;14.11;62.78;100112.28;2441956;28;46439;-87
2022/03/30 04:54:36;;;;;;;;;63.00;50.25;;;;;14.07;63.03;100106.34;2441169;28;44847;-80
2022/03/30 04:55:47;;;;;;;;;73.00;53.25;;;;;14.11;63.38;100113.13;2441145;28;46264;-83
2022/03/30 04:56:57;;;;;;;;;69.00;52.25;;;;;14.10;63.32;100113.25;2442101;28;45156;-81
2022/03/30 04:58:08;;;;;;;;;62.75;50.25;;;;;14.11;63.36;100112.28;2441991;28;45251;-81
2022/03/30 04:59:18;;;;;;;;;72.25;53.50;;;;;14.09;63.50;100114.16;2441999;28;45232;-85
2022/03/30 05:00:29;;;;;;;;;71.00;53.25;;;;;14.07;63.19;100114.25;2442427;28;47224;-85
2022/03/30 05:01:39;;;;;;;;;66.00;50.00;;;;;14.09;63.66;100116.81;2451382;28;45436;-84
2022/03/30 05:02:49;;;;;;;;;70.00;54.75;;;;;14.06;63.66;100109.91;2449752;28;45444;-85
2022/03/30 05:04:00;;;;;;;;;68.00;51.75;;;;;14.05;63.35;100106.41;2445282;28;45459;-84
2022/03/30 05:05:10;;;;;;;;;69.25;53.00;;;;;14.04;63.74;100102.09;2441245;28;45449;-84
2022/03/30 05:06:21;;;;;;;;;73.00;54.50;;;;;14.04;63.63;100106.50;2448591;28;45395;-83
2022/03/30 05:07:31;;;;;;;;;70.75;53.50;;;;;14.03;63.77;100104.78;2450028;27;45934;-83
2022/03/30 05:08:41;;;;;;;;;72.75;54.25;;;;;14.02;63.96;100106.59;2441959;28;45362;-83
2022/03/30 05:09:52;;;;;;;;;74.75;55.75;;;;;14.00;63.55;100103.19;2441650;28;46266;-83
2022/03/30 05:11:02;;;;;;;;;69.75;54.50;;;;;13.99;63.85;100109.41;2445103;28;45246;-85
2022/03/30 05:12:13;;;;;;;;;72.50;50.50;;;;;13.97;64.10;100111.31;2442305;28;45329;-84
2022/03/30 05:13:23;;;;;;;;;69.75;53.50;;;;;13.94;63.83;100107.03;2447184;28;45202;-84
2022/03/30 05:14:34;;;;;;;;;70.00;53.00;;;;;13.96;63.87;100106.94;2442312;27;46481;-84
2022/03/30 05:15:44;;;;;;;;;72.00;55.25;;;;;13.95;64.19;100106.09;2442974;27;44607;-84
2022/03/30 05:16:54;;;;;;;;;73.00;55.00;;;;;13.94;63.98;100106.19;2446820;27;46446;-84
2022/03/30 05:18:06;;;;;;;;;71.50;51.25;;;;;13.90;64.07;100100.22;2443768;28;45249;-82
2022/03/30 05:19:16;;;;;;;;;69.00;50.25;;;;;13.92;64.14;100106.28;2441091;28;46379;-78
2022/03/30 05:20:27;;;;;;;;;72.25;54.00;;;;;13.91;63.98;100106.34;2444397;28;45552;-81
2022/03/30 05:21:37;;;;;;;;;76.25;56.00;;;;;13.90;64.18;100102.84;2441176;28;45436;-88
2022/03/30 05:22:48;;;;;;;;;67.75;54.25;;;;;13.91;64.32;100107.22;2441821;28;45283;-82
2022/03/30 05:23:59;;;;;;;;;72.25;55.25;;;;;13.91;64.26;100101.94;2442031;28;46257;-82
2022/03/30 05:25:11;;;;;;;;;74.50;56.25;;;;;13.91;64.10;100112.50;2441952;28;44654;-82
2022/03/30 05:26:22;;;;;;;;;71.50;55.25;;;;;13.90;64.40;100102.84;2440936;28;47345;-82